createdAt,value
2023-03-16T00:00:14.040Z,5.02
2023-03-16T00:00:45.857Z,5.00
2023-03-16T00:01:18.772Z,4.96
2023-03-16T00:01:50.523Z,4.99
2023-03-16T00:02:22.398Z,4.99
2023-03-16T00:02:54.293Z,4.99
2023-03-16T00:03:30.561Z,4.95
2023-03-16T00:04:02.417Z,4.96
2023-03-16T00:04:37.897Z,4.86
2023-03-16T00:05:13.067Z,4.95
2023-03-16T00:05:54.694Z,4.99
2023-03-16T00:06:26.509Z,4.96
2023-03-16T00:06:59.149Z,4.94
2023-03-16T00:07:30.928Z,4.94
2023-03-16T00:08:03.299Z,4.94
2023-03-16T00:08:35.948Z,4.90
2023-03-16T00:09:09.803Z,4.98
2023-03-16T00:09:42.855Z,4.98
2023-03-16T00:10:14.730Z,4.98
2023-03-16T00:10:47.305Z,4.99
2023-03-16T00:11:19.068Z,4.99
2023-03-16T00:11:51.034Z,4.94
2023-03-16T00:12:22.838Z,4.97
2023-03-16T00:12:55.241Z,5.02
2023-03-16T00:13:27.661Z,5.03
2023-03-16T00:13:59.443Z,5.04
2023-03-16T00:14:32.611Z,5.03
2023-03-16T00:15:05.133Z,4.99
2023-03-16T00:15:36.874Z,4.99
2023-03-16T00:16:09.146Z,4.98
2023-03-16T00:16:41.040Z,5.00
2023-03-16T00:17:20.262Z,4.98
2023-03-16T00:17:52.249Z,4.96
2023-03-16T00:18:29.154Z,4.94
2023-03-16T00:19:03.291Z,4.94
2023-03-16T00:19:35.351Z,4.98
2023-03-16T00:20:07.852Z,4.98
2023-03-16T00:20:39.594Z,4.97
2023-03-16T00:21:14.984Z,4.99
2023-03-16T00:21:46.773Z,4.95
2023-03-16T00:22:18.523Z,4.97
2023-03-16T00:22:50.344Z,4.91
2023-03-16T00:23:27.586Z,4.88
2023-03-16T00:23:59.432Z,4.88
2023-03-16T00:24:32.006Z,4.89
2023-03-16T00:25:04.678Z,4.88
2023-03-16T00:25:36.425Z,4.87
2023-03-16T00:26:10.128Z,4.88
2023-03-16T00:26:42.376Z,4.89
2023-03-16T00:27:15.668Z,4.85
2023-03-16T00:27:47.699Z,4.87
2023-03-16T00:28:19.662Z,4.89
2023-03-16T00:28:54.404Z,4.88
2023-03-16T00:29:26.306Z,4.80
2023-03-16T00:29:58.159Z,4.82
2023-03-16T00:30:32.859Z,4.88
2023-03-16T00:31:07.121Z,4.85
2023-03-16T00:31:45.281Z,4.85
2023-03-16T00:32:25.845Z,4.79
2023-03-16T00:32:57.607Z,4.83
2023-03-16T00:33:29.896Z,4.83
2023-03-16T00:34:02.944Z,4.78
2023-03-16T00:34:34.750Z,4.77
2023-03-16T00:35:09.418Z,4.82
2023-03-16T00:35:50.423Z,4.83
2023-03-16T00:36:22.903Z,4.84
2023-03-16T00:36:55.437Z,4.78
2023-03-16T00:37:28.652Z,4.75
2023-03-16T00:38:00.461Z,4.79
2023-03-16T00:38:37.553Z,4.76
2023-03-16T00:39:11.814Z,4.79
2023-03-16T00:39:45.991Z,4.73
2023-03-16T00:40:17.793Z,4.71
2023-03-16T00:40:51.352Z,4.67
2023-03-16T00:41:23.112Z,4.62
2023-03-16T00:41:58.456Z,4.64
2023-03-16T00:42:31.550Z,4.67
2023-03-16T00:43:03.859Z,4.71
2023-03-16T00:43:45.470Z,4.61
2023-03-16T00:44:17.324Z,4.62
2023-03-16T00:44:49.141Z,4.68
2023-03-16T00:45:20.893Z,4.66
2023-03-16T00:45:58.866Z,4.63
2023-03-16T00:46:30.966Z,4.57
2023-03-16T00:47:04.722Z,4.62
2023-03-16T00:47:36.750Z,4.63
2023-03-16T00:48:08.522Z,4.62
2023-03-16T00:48:42.961Z,4.60
2023-03-16T00:49:14.708Z,4.60
2023-03-16T00:49:46.478Z,4.60
2023-03-16T00:50:22.394Z,4.59
2023-03-16T00:50:54.554Z,4.55
2023-03-16T00:51:26.390Z,4.57
2023-03-16T00:51:58.155Z,4.59
2023-03-16T00:52:30.269Z,4.61
2023-03-16T00:53:02.138Z,4.62
2023-03-16T00:53:35.352Z,4.56
2023-03-16T00:54:07.136Z,4.54
2023-03-16T00:54:38.974Z,4.58
2023-03-16T00:55:10.729Z,4.61
2023-03-16T00:55:42.519Z,4.55
2023-03-16T00:56:14.989Z,4.58
2023-03-16T00:56:46.875Z,4.59
2023-03-16T00:57:19.602Z,4.55
2023-03-16T00:57:51.377Z,4.56
2023-03-16T00:58:23.393Z,4.56
2023-03-16T00:58:57.909Z,4.53
2023-03-16T00:59:31.190Z,4.45
2023-03-16T01:00:13.041Z,4.48
2023-03-16T01:00:45.479Z,4.48
2023-03-16T01:01:20.395Z,4.52
2023-03-16T01:01:55.966Z,4.55
2023-03-16T01:02:27.915Z,4.47
2023-03-16T01:02:59.816Z,4.46
2023-03-16T01:03:32.362Z,4.43
2023-03-16T01:04:04.223Z,4.39
2023-03-16T01:04:37.041Z,4.38
2023-03-16T01:05:09.461Z,4.37
2023-03-16T01:05:42.594Z,4.38
2023-03-16T01:06:17.297Z,4.41
2023-03-16T01:06:50.483Z,4.37
2023-03-16T01:07:23.042Z,4.38
2023-03-16T01:07:54.820Z,4.43
2023-03-16T01:08:30.075Z,4.48
2023-03-16T01:09:05.798Z,4.46
2023-03-16T01:09:37.758Z,4.41
2023-03-16T01:10:10.300Z,4.37
2023-03-16T01:10:42.136Z,4.41
2023-03-16T01:11:17.235Z,4.45
2023-03-16T01:11:53.571Z,4.40
2023-03-16T01:12:25.368Z,4.41
2023-03-16T01:12:57.141Z,4.40
2023-03-16T01:13:29.302Z,4.37
2023-03-16T01:14:01.683Z,4.37
2023-03-16T01:14:35.240Z,4.35
2023-03-16T01:15:07.710Z,4.41
2023-03-16T01:15:39.542Z,4.44
2023-03-16T01:16:11.408Z,4.43
2023-03-16T01:16:46.036Z,4.43
2023-03-16T01:17:18.203Z,4.38
2023-03-16T01:17:50.048Z,4.39
2023-03-16T01:18:22.492Z,4.40
2023-03-16T01:18:55.331Z,4.39
2023-03-16T01:19:27.793Z,4.37
2023-03-16T01:19:59.536Z,4.40
2023-03-16T01:20:33.638Z,4.41
2023-03-16T01:21:09.094Z,4.40
2023-03-16T01:21:42.698Z,4.41
2023-03-16T01:22:15.969Z,4.40
2023-03-16T01:22:47.866Z,4.41
2023-03-16T01:23:21.075Z,4.41
2023-03-16T01:23:54.018Z,4.39
2023-03-16T01:24:25.917Z,4.42
2023-03-16T01:24:58.536Z,4.38
2023-03-16T01:25:30.380Z,4.42
2023-03-16T01:26:02.584Z,4.43
2023-03-16T01:26:34.546Z,4.42
2023-03-16T01:27:07.411Z,4.40
2023-03-16T01:27:39.296Z,4.46
2023-03-16T01:28:11.076Z,4.44
2023-03-16T01:28:44.492Z,4.44
2023-03-16T01:29:16.333Z,4.45
2023-03-16T01:29:48.238Z,4.45
2023-03-16T01:30:21.106Z,4.39
2023-03-16T01:30:57.869Z,4.40
2023-03-16T01:31:29.660Z,4.37
2023-03-16T01:32:02.724Z,4.37
2023-03-16T01:32:34.520Z,4.30
2023-03-16T01:33:06.324Z,4.31
2023-03-16T01:33:38.927Z,4.27
2023-03-16T01:34:16.598Z,4.31
2023-03-16T01:34:48.351Z,4.37
2023-03-16T01:35:21.916Z,4.40
2023-03-16T01:35:59.462Z,4.29
2023-03-16T01:36:32.091Z,4.29
2023-03-16T01:37:03.926Z,4.27
2023-03-16T01:37:35.675Z,4.27
2023-03-16T01:38:07.458Z,4.23
2023-03-16T01:38:39.820Z,4.31
2023-03-16T01:39:12.517Z,4.31
2023-03-16T01:39:44.299Z,4.34
2023-03-16T01:40:16.370Z,4.31
2023-03-16T01:40:51.505Z,4.24
2023-03-16T01:41:23.418Z,4.16
2023-03-16T01:41:55.254Z,4.11
2023-03-16T01:42:27.057Z,4.08
2023-03-16T01:43:03.166Z,4.12
2023-03-16T01:43:37.787Z,4.08
2023-03-16T01:44:24.515Z,4.08
2023-03-16T01:45:02.213Z,4.12
2023-03-16T01:46:05.151Z,4.07
2023-03-16T01:46:37.543Z,4.11
2023-03-16T01:47:09.375Z,4.12
2023-03-16T01:47:41.143Z,4.17
2023-03-16T01:48:13.171Z,4.11
2023-03-16T01:49:09.543Z,3.94
2023-03-16T01:49:41.381Z,3.94
2023-03-16T01:50:13.387Z,4.02
2023-03-16T01:50:46.032Z,3.94
2023-03-16T01:51:24.631Z,3.86
2023-03-16T01:52:07.164Z,3.78
2023-03-16T01:52:40.198Z,3.76
2023-03-16T01:53:12.170Z,3.76
2023-03-16T01:53:47.027Z,3.69
2023-03-16T01:54:33.920Z,3.73
2023-03-16T01:55:13.479Z,3.74
2023-03-16T01:55:46.958Z,3.74
2023-03-16T01:56:34.764Z,3.76
2023-03-16T01:57:11.906Z,3.70
2023-03-16T01:57:46.842Z,3.74
2023-03-16T01:58:18.776Z,3.81
2023-03-16T01:58:53.977Z,3.84
2023-03-16T01:59:44.929Z,3.89
2023-03-16T02:00:20.868Z,3.85
2023-03-16T02:00:52.735Z,3.82
2023-03-16T02:01:29.234Z,3.80
2023-03-16T02:02:02.866Z,3.74
2023-03-16T02:02:35.202Z,3.67
2023-03-16T02:03:13.971Z,3.71
2023-03-16T02:03:46.256Z,3.60
2023-03-16T02:04:50.093Z,3.58
2023-03-16T02:05:43.724Z,3.63
2023-03-16T02:06:19.209Z,3.67
2023-03-16T02:06:55.053Z,3.69
2023-03-16T02:07:29.316Z,3.71
2023-03-16T02:08:02.887Z,3.68
2023-03-16T02:08:38.855Z,3.70
2023-03-16T02:09:11.686Z,3.69
2023-03-16T02:09:47.264Z,3.68
2023-03-16T02:10:20.612Z,3.67
2023-03-16T02:10:54.750Z,3.67
2023-03-16T02:11:26.908Z,3.66
2023-03-16T02:11:59.736Z,3.62
2023-03-16T02:12:32.023Z,3.53
2023-03-16T02:13:04.415Z,3.51
2023-03-16T02:13:39.173Z,3.56
2023-03-16T02:14:12.520Z,3.63
2023-03-16T02:14:46.116Z,3.63
2023-03-16T02:15:17.843Z,3.62
2023-03-16T02:15:51.378Z,3.66
2023-03-16T02:16:23.507Z,3.74
2023-03-16T02:16:56.721Z,3.72
2023-03-16T02:17:31.871Z,3.71
2023-03-16T02:18:04.659Z,3.74
2023-03-16T02:18:36.709Z,3.65
2023-03-16T02:19:17.357Z,3.66
2023-03-16T02:20:25.437Z,3.50
2023-03-16T02:21:05.669Z,3.53
2023-03-16T02:21:48.059Z,3.56
2023-03-16T02:22:25.010Z,3.60
2023-03-16T02:22:57.510Z,3.84
2023-03-16T02:23:30.089Z,3.95
2023-03-16T02:24:03.338Z,3.91
2023-03-16T02:24:37.359Z,3.92
2023-03-16T02:25:10.580Z,3.92
2023-03-16T02:25:48.992Z,3.95
2023-03-16T02:26:59.520Z,4.01
2023-03-16T02:27:36.653Z,3.93
2023-03-16T02:28:37.411Z,3.87
2023-03-16T02:29:14.580Z,3.93
2023-03-16T02:29:54.974Z,3.96
2023-03-16T02:30:27.602Z,3.97
2023-03-16T02:31:00.392Z,3.99
2023-03-16T02:31:32.481Z,4.01
2023-03-16T02:32:05.817Z,4.05
2023-03-16T02:32:39.955Z,4.03
2023-03-16T02:33:13.003Z,4.02
2023-03-16T02:33:47.736Z,3.97
2023-03-16T02:34:19.802Z,3.97
2023-03-16T02:34:52.032Z,4.02
2023-03-16T02:35:24.088Z,4.02
2023-03-16T02:35:55.902Z,4.00
2023-03-16T02:36:30.064Z,3.97
2023-03-16T02:37:03.424Z,3.97
2023-03-16T02:37:35.673Z,3.91
2023-03-16T02:38:07.482Z,3.94
2023-03-16T02:38:39.305Z,3.88
2023-03-16T02:39:11.085Z,3.79
2023-03-16T02:39:44.216Z,3.70
2023-03-16T02:40:26.655Z,3.65
2023-03-16T02:41:12.653Z,3.69
2023-03-16T02:41:46.006Z,3.67
2023-03-16T02:42:26.585Z,3.73
2023-03-16T02:43:08.937Z,3.68
2023-03-16T02:43:46.803Z,3.63
2023-03-16T02:44:27.845Z,3.66
2023-03-16T02:45:00.485Z,3.69
2023-03-16T02:45:40.993Z,3.71
2023-03-16T02:46:14.844Z,3.63
2023-03-16T02:46:48.691Z,3.59
2023-03-16T02:47:32.493Z,3.46
2023-03-16T02:48:14.663Z,3.48
2023-03-16T02:49:05.896Z,3.62
2023-03-16T02:49:43.924Z,3.64
2023-03-16T02:50:15.897Z,3.61
2023-03-16T02:50:51.544Z,3.63
2023-03-16T02:51:23.310Z,3.70
2023-03-16T02:51:57.520Z,3.72
2023-03-16T02:52:29.300Z,3.69
2023-03-16T02:53:01.032Z,3.65
2023-03-16T02:53:32.808Z,3.69
2023-03-16T02:54:22.939Z,3.73
2023-03-16T02:54:55.676Z,3.69
2023-03-16T02:55:27.535Z,3.68
2023-03-16T02:55:59.267Z,3.64
2023-03-16T02:56:31.060Z,3.66
2023-03-16T02:57:02.848Z,3.61
2023-03-16T02:57:34.844Z,3.52
2023-03-16T02:58:06.831Z,3.46
2023-03-16T02:58:38.551Z,3.55
2023-03-16T02:59:10.373Z,3.53
2023-03-16T02:59:42.170Z,3.52
2023-03-16T03:00:18.995Z,3.56
2023-03-16T03:00:51.042Z,3.48
2023-03-16T03:01:23.266Z,3.35
2023-03-16T03:01:55.050Z,3.38
2023-03-16T03:02:26.882Z,3.45
2023-03-16T03:02:58.630Z,3.41
2023-03-16T03:03:30.691Z,3.43
2023-03-16T03:04:04.245Z,3.48
2023-03-16T03:04:35.987Z,3.48
2023-03-16T03:05:08.564Z,3.45
2023-03-16T03:05:40.520Z,3.47
2023-03-16T03:06:12.298Z,3.47
2023-03-16T03:06:44.374Z,3.47
2023-03-16T03:07:16.637Z,3.43
2023-03-16T03:08:07.209Z,3.46
2023-03-16T03:08:39.061Z,3.44
2023-03-16T03:09:11.813Z,3.48
2023-03-16T03:09:43.927Z,3.47
2023-03-16T03:10:16.080Z,3.45
2023-03-16T03:10:47.855Z,3.45
2023-03-16T03:11:19.827Z,3.53
2023-03-16T03:11:51.844Z,3.57
2023-03-16T03:12:23.771Z,3.57
2023-03-16T03:12:55.550Z,3.57
2023-03-16T03:13:27.865Z,3.58
2023-03-16T03:13:59.692Z,3.58
2023-03-16T03:14:31.412Z,3.53
2023-03-16T03:15:04.020Z,3.49
2023-03-16T03:15:36.097Z,3.49
2023-03-16T03:16:08.047Z,3.54
2023-03-16T03:16:39.875Z,3.48
2023-03-16T03:17:13.412Z,3.43
2023-03-16T03:17:46.680Z,3.42
2023-03-16T03:18:18.505Z,3.37
2023-03-16T03:18:52.803Z,3.33
2023-03-16T03:19:24.548Z,3.31
2023-03-16T03:20:00.737Z,3.26
2023-03-16T03:20:33.304Z,3.24
2023-03-16T03:21:05.649Z,3.29
2023-03-16T03:21:37.407Z,3.26
2023-03-16T03:22:09.206Z,3.30
2023-03-16T03:22:41.207Z,3.35
2023-03-16T03:23:15.430Z,3.32
2023-03-16T03:23:47.452Z,3.27
2023-03-16T03:24:19.237Z,3.29
2023-03-16T03:24:51.564Z,3.37
2023-03-16T03:25:23.755Z,3.35
2023-03-16T03:25:59.547Z,3.35
2023-03-16T03:26:31.368Z,3.34
2023-03-16T03:27:06.051Z,3.37
2023-03-16T03:27:38.737Z,3.33
2023-03-16T03:28:11.537Z,3.35
2023-03-16T03:28:46.490Z,3.36
2023-03-16T03:29:18.574Z,3.40
2023-03-16T03:29:50.338Z,3.39
2023-03-16T03:30:25.876Z,3.28
2023-03-16T03:30:57.857Z,3.18
2023-03-16T03:31:29.684Z,3.21
2023-03-16T03:32:02.354Z,3.19
2023-03-16T03:32:34.105Z,3.22
2023-03-16T03:33:06.033Z,3.23
2023-03-16T03:33:37.907Z,3.25
2023-03-16T03:34:10.072Z,3.35
2023-03-16T03:34:42.646Z,3.38
2023-03-16T03:35:16.131Z,3.40
2023-03-16T03:35:48.502Z,3.34
2023-03-16T03:36:22.249Z,3.31
2023-03-16T03:36:54.277Z,3.34
2023-03-16T03:37:26.096Z,3.27
2023-03-16T03:37:58.025Z,3.23
2023-03-16T03:38:29.813Z,3.26
2023-03-16T03:39:05.200Z,3.18
2023-03-16T03:39:37.115Z,3.17
2023-03-16T03:40:12.063Z,3.14
2023-03-16T03:40:43.796Z,3.13
2023-03-16T03:41:15.625Z,3.06
2023-03-16T03:41:47.370Z,3.10
2023-03-16T03:42:19.525Z,3.09
2023-03-16T03:42:51.640Z,3.08
2023-03-16T03:43:23.366Z,3.12
2023-03-16T03:43:55.119Z,3.18
2023-03-16T03:44:27.177Z,3.18
2023-03-16T03:44:58.908Z,3.18
2023-03-16T03:45:30.737Z,3.16
2023-03-16T03:46:04.154Z,3.13
2023-03-16T03:46:36.099Z,3.06
2023-03-16T03:47:08.128Z,2.99
2023-03-16T03:47:41.326Z,3.03
2023-03-16T03:48:13.425Z,2.97
2023-03-16T03:48:45.197Z,3.06
2023-03-16T03:49:17.105Z,3.08
2023-03-16T03:49:48.992Z,3.11
2023-03-16T03:50:21.538Z,3.10
2023-03-16T03:50:53.888Z,3.09
2023-03-16T03:51:25.761Z,3.12
2023-03-16T03:51:59.329Z,3.09
2023-03-16T03:52:31.114Z,3.05
2023-03-16T03:53:02.892Z,3.04
2023-03-16T03:53:34.628Z,3.05
2023-03-16T03:54:06.502Z,2.99
2023-03-16T03:54:38.298Z,3.00
2023-03-16T03:55:10.888Z,2.95
2023-03-16T03:55:42.650Z,2.95
2023-03-16T03:56:14.445Z,3.01
2023-03-16T03:56:46.277Z,3.07
2023-03-16T03:57:19.105Z,3.09
2023-03-16T03:57:51.583Z,3.11
2023-03-16T03:58:23.445Z,3.20
2023-03-16T03:58:55.240Z,3.24
2023-03-16T03:59:27.402Z,3.33
2023-03-16T03:59:59.131Z,3.34
2023-03-16T04:00:31.228Z,3.40
2023-03-16T04:01:02.976Z,3.38
2023-03-16T04:01:34.791Z,3.36
2023-03-16T04:02:06.921Z,3.31
2023-03-16T04:02:38.990Z,3.27
2023-03-16T04:03:10.984Z,3.19
2023-03-16T04:03:45.177Z,3.23
2023-03-16T04:04:17.026Z,3.27
2023-03-16T04:04:49.068Z,3.33
2023-03-16T04:05:22.024Z,3.22
2023-03-16T04:05:53.748Z,3.16
2023-03-16T04:06:25.524Z,3.18
2023-03-16T04:06:57.277Z,3.21
2023-03-16T04:07:29.308Z,3.13
2023-03-16T04:08:01.082Z,3.11
2023-03-16T04:08:32.984Z,3.18
2023-03-16T04:09:05.562Z,3.19
2023-03-16T04:09:37.518Z,3.18
2023-03-16T04:10:09.975Z,3.22
2023-03-16T04:10:41.731Z,3.26
2023-03-16T04:11:13.584Z,3.30
2023-03-16T04:11:45.400Z,3.19
2023-03-16T04:12:17.349Z,3.15
2023-03-16T04:12:49.127Z,3.25
2023-03-16T04:13:20.859Z,3.18
2023-03-16T04:13:53.564Z,3.11
2023-03-16T04:14:25.276Z,3.06
2023-03-16T04:14:57.134Z,3.09
2023-03-16T04:15:28.961Z,3.15
2023-03-16T04:16:04.904Z,3.17
2023-03-16T04:16:36.895Z,3.14
2023-03-16T04:17:09.080Z,3.07
2023-03-16T04:17:40.856Z,3.15
2023-03-16T04:18:13.092Z,3.11
2023-03-16T04:18:46.273Z,3.04
2023-03-16T04:19:18.066Z,2.98
2023-03-16T04:19:50.253Z,3.02
2023-03-16T04:20:23.281Z,3.07
2023-03-16T04:20:55.489Z,3.13
2023-03-16T04:21:27.576Z,3.11
2023-03-16T04:21:59.342Z,3.14
2023-03-16T04:22:31.189Z,3.17
2023-03-16T04:23:03.004Z,3.14
2023-03-16T04:23:34.884Z,3.19
2023-03-16T04:24:06.853Z,3.26
2023-03-16T04:24:38.783Z,3.20
2023-03-16T04:25:12.352Z,3.18
2023-03-16T04:25:45.435Z,3.21
2023-03-16T04:26:18.007Z,3.25
2023-03-16T04:26:49.840Z,3.17
2023-03-16T04:27:21.722Z,3.19
2023-03-16T04:27:54.119Z,3.22
2023-03-16T04:28:26.852Z,3.26
2023-03-16T04:28:59.200Z,3.18
2023-03-16T04:29:32.089Z,3.21
2023-03-16T04:30:11.327Z,3.20
2023-03-16T04:30:43.089Z,3.19
2023-03-16T04:31:14.925Z,3.19
2023-03-16T04:31:46.987Z,3.14
2023-03-16T04:32:18.703Z,3.12
2023-03-16T04:32:51.426Z,3.17
2023-03-16T04:33:23.229Z,3.18
2023-03-16T04:33:54.989Z,3.19
2023-03-16T04:34:27.024Z,3.16
2023-03-16T04:34:58.737Z,3.21
2023-03-16T04:35:31.928Z,3.16
2023-03-16T04:36:05.868Z,3.09
2023-03-16T04:36:39.006Z,3.12
2023-03-16T04:37:10.921Z,3.16
2023-03-16T04:37:42.708Z,3.16
2023-03-16T04:38:14.870Z,3.19
2023-03-16T04:38:46.646Z,3.19
2023-03-16T04:39:19.937Z,3.20
2023-03-16T04:39:51.850Z,3.15
2023-03-16T04:40:23.767Z,3.18
2023-03-16T04:40:56.378Z,3.15
2023-03-16T04:41:28.145Z,3.14
2023-03-16T04:41:59.913Z,3.18
2023-03-16T04:42:31.676Z,3.06
2023-03-16T04:43:03.513Z,3.06
2023-03-16T04:43:35.517Z,3.04
2023-03-16T04:44:07.969Z,3.08
2023-03-16T04:44:44.422Z,3.06
2023-03-16T04:45:20.478Z,3.12
2023-03-16T04:45:52.262Z,2.99
2023-03-16T04:46:24.997Z,2.98
2023-03-16T04:46:56.735Z,3.02
2023-03-16T04:47:28.520Z,2.97
2023-03-16T04:48:00.539Z,2.99
2023-03-16T04:48:32.558Z,3.05
2023-03-16T04:49:04.350Z,3.06
2023-03-16T04:49:36.197Z,3.13
2023-03-16T04:50:09.002Z,3.16
2023-03-16T04:50:41.045Z,3.11
2023-03-16T04:51:12.970Z,2.93
2023-03-16T04:51:44.774Z,3.01
2023-03-16T04:52:16.529Z,3.05
2023-03-16T04:52:48.542Z,3.08
2023-03-16T04:53:20.359Z,3.08
2023-03-16T04:53:54.128Z,3.08
2023-03-16T04:54:25.881Z,3.09
2023-03-16T04:54:57.729Z,2.91
2023-03-16T04:55:29.739Z,2.85
2023-03-16T04:56:01.684Z,2.77
2023-03-16T04:56:33.921Z,2.76
2023-03-16T04:57:05.990Z,2.92
2023-03-16T04:57:37.914Z,2.98
2023-03-16T04:58:09.686Z,2.93
2023-03-16T04:58:41.708Z,2.97
2023-03-16T04:59:13.593Z,2.95
2023-03-16T04:59:45.564Z,2.94
2023-03-16T05:00:21.185Z,2.98
2023-03-16T05:00:54.382Z,3.03
2023-03-16T05:01:26.373Z,3.03
2023-03-16T05:01:58.294Z,3.05
2023-03-16T05:02:30.149Z,2.99
2023-03-16T05:03:02.825Z,2.88
2023-03-16T05:03:34.952Z,2.85
2023-03-16T05:04:06.689Z,2.92
2023-03-16T05:04:38.482Z,2.88
2023-03-16T05:05:10.520Z,2.86
2023-03-16T05:05:42.641Z,2.88
2023-03-16T05:06:14.534Z,2.91
2023-03-16T05:06:46.313Z,2.91
2023-03-16T05:07:18.154Z,2.99
2023-03-16T05:07:50.612Z,3.06
2023-03-16T05:08:22.639Z,2.92
2023-03-16T05:08:54.398Z,2.90
2023-03-16T05:09:26.177Z,2.94
2023-03-16T05:09:57.997Z,2.93
2023-03-16T05:10:30.046Z,2.95
2023-03-16T05:11:02.092Z,2.93
2023-03-16T05:11:33.894Z,2.94
2023-03-16T05:12:05.932Z,2.85
2023-03-16T05:12:37.741Z,2.68
2023-03-16T05:13:09.540Z,2.67
2023-03-16T05:13:41.275Z,2.66
2023-03-16T05:14:13.017Z,2.67
2023-03-16T05:14:44.822Z,2.60
2023-03-16T05:15:16.647Z,2.70
2023-03-16T05:15:48.456Z,2.65
2023-03-16T05:16:20.253Z,2.71
2023-03-16T05:16:52.346Z,2.72
2023-03-16T05:17:25.567Z,2.81
2023-03-16T05:17:57.821Z,2.91
2023-03-16T05:18:29.646Z,2.95
2023-03-16T05:19:02.108Z,2.89
2023-03-16T05:19:34.053Z,2.86
2023-03-16T05:20:09.267Z,2.80
2023-03-16T05:20:42.199Z,2.71
2023-03-16T05:21:14.909Z,2.77
2023-03-16T05:21:46.715Z,2.68
2023-03-16T05:22:18.569Z,2.63
2023-03-16T05:22:50.940Z,2.69
2023-03-16T05:23:23.812Z,2.79
2023-03-16T05:23:55.662Z,2.81
2023-03-16T05:24:27.431Z,2.84
2023-03-16T05:25:03.493Z,2.81
2023-03-16T05:25:35.368Z,2.85
2023-03-16T05:26:07.768Z,2.73
2023-03-16T05:26:40.169Z,2.65
2023-03-16T05:27:12.007Z,2.75
2023-03-16T05:27:51.935Z,2.81
2023-03-16T05:28:23.803Z,2.88
2023-03-16T05:28:55.697Z,2.77
2023-03-16T05:29:27.434Z,2.77
2023-03-16T05:29:59.241Z,2.81
2023-03-16T05:30:31.528Z,2.74
2023-03-16T05:31:03.979Z,2.84
2023-03-16T05:31:37.510Z,2.83
2023-03-16T05:32:09.224Z,2.86
2023-03-16T05:32:41.039Z,2.90
2023-03-16T05:33:13.237Z,2.89
2023-03-16T05:33:44.992Z,2.91
2023-03-16T05:34:16.772Z,2.94
2023-03-16T05:34:48.469Z,2.83
2023-03-16T05:35:22.486Z,2.75
2023-03-16T05:35:58.157Z,2.82
2023-03-16T05:36:30.075Z,2.88
2023-03-16T05:37:01.853Z,2.88
2023-03-16T05:37:38.146Z,2.95
2023-03-16T05:38:13.179Z,2.90
2023-03-16T05:38:45.776Z,2.90
2023-03-16T05:39:17.528Z,2.91
2023-03-16T05:39:49.348Z,2.93
2023-03-16T05:40:23.228Z,2.94
2023-03-16T05:40:57.736Z,2.95
2023-03-16T05:41:30.230Z,2.96
2023-03-16T05:42:01.965Z,2.93
2023-03-16T05:42:34.883Z,2.93
2023-03-16T05:43:06.681Z,2.95
2023-03-16T05:43:38.449Z,2.99
2023-03-16T05:44:10.779Z,2.96
2023-03-16T05:44:42.514Z,2.91
2023-03-16T05:45:16.497Z,2.94
2023-03-16T05:45:48.288Z,2.94
2023-03-16T05:46:20.936Z,2.92
2023-03-16T05:46:53.167Z,2.88
2023-03-16T05:47:25.040Z,2.82
2023-03-16T05:47:56.802Z,2.92
2023-03-16T05:48:28.647Z,2.80
2023-03-16T05:49:00.458Z,2.85
2023-03-16T05:49:32.484Z,2.97
2023-03-16T05:50:05.742Z,3.01
2023-03-16T05:50:37.660Z,2.98
2023-03-16T05:51:09.566Z,2.99
2023-03-16T05:51:41.431Z,2.93
2023-03-16T05:52:13.920Z,2.99
2023-03-16T05:52:46.433Z,3.12
2023-03-16T05:53:19.224Z,3.19
2023-03-16T05:53:50.982Z,3.15
2023-03-16T05:54:23.475Z,3.23
2023-03-16T05:54:55.234Z,3.24
2023-03-16T05:55:27.102Z,3.38
2023-03-16T05:55:59.342Z,3.48
2023-03-16T05:56:31.269Z,3.63
2023-03-16T05:57:03.107Z,3.58
2023-03-16T05:57:34.898Z,3.40
2023-03-16T05:58:06.703Z,3.40
2023-03-16T05:58:38.532Z,3.41
2023-03-16T05:59:10.311Z,3.34
2023-03-16T05:59:42.088Z,3.38
2023-03-16T06:00:16.375Z,3.52
2023-03-16T06:00:48.392Z,3.75
2023-03-16T06:01:21.486Z,3.82
2023-03-16T06:01:53.353Z,3.80
2023-03-16T06:02:25.627Z,3.74
2023-03-16T06:02:57.716Z,3.75
2023-03-16T06:03:29.538Z,3.91
2023-03-16T06:04:03.324Z,4.02
2023-03-16T06:04:35.179Z,4.17
2023-03-16T06:05:07.710Z,4.00
2023-03-16T06:05:39.500Z,4.16
2023-03-16T06:06:11.281Z,4.38
2023-03-16T06:06:43.716Z,4.28
2023-03-16T06:07:15.444Z,4.16
2023-03-16T06:07:48.229Z,4.01
2023-03-16T06:08:19.957Z,4.04
2023-03-16T06:08:52.471Z,3.98
2023-03-16T06:09:24.204Z,3.88
2023-03-16T06:09:55.990Z,3.77
2023-03-16T06:10:28.032Z,3.94
2023-03-16T06:10:59.956Z,4.08
2023-03-16T06:11:33.032Z,4.18
2023-03-16T06:12:04.900Z,4.52
2023-03-16T06:12:36.728Z,4.61
2023-03-16T06:13:08.513Z,4.82
2023-03-16T06:13:41.101Z,4.98
2023-03-16T06:14:12.860Z,4.70
2023-03-16T06:14:44.762Z,4.89
2023-03-16T06:15:16.600Z,5.06
2023-03-16T06:15:49.400Z,5.18
2023-03-16T06:16:21.290Z,4.88
2023-03-16T06:16:53.049Z,4.76
2023-03-16T06:17:24.879Z,5.06
2023-03-16T06:17:56.906Z,5.33
2023-03-16T06:18:29.157Z,5.40
2023-03-16T06:19:01.090Z,5.48
2023-03-16T06:19:32.871Z,5.65
2023-03-16T06:20:11.128Z,5.39
2023-03-16T06:20:43.470Z,5.34
2023-03-16T06:21:15.287Z,5.43
2023-03-16T06:22:19.754Z,5.51
2023-03-16T06:22:51.626Z,5.59
2023-03-16T06:23:23.765Z,5.63
2023-03-16T06:23:56.123Z,5.53
2023-03-16T06:24:27.950Z,5.58
2023-03-16T06:24:59.714Z,5.63
2023-03-16T06:25:31.496Z,5.49
2023-03-16T06:26:03.333Z,5.75
2023-03-16T06:26:36.428Z,5.89
2023-03-16T06:27:08.419Z,5.97
2023-03-16T06:27:40.631Z,6.08
2023-03-16T06:28:12.448Z,6.10
2023-03-16T06:28:44.212Z,6.20
2023-03-16T06:29:16.051Z,6.39
2023-03-16T06:29:48.038Z,5.81
2023-03-16T06:30:19.917Z,6.21
2023-03-16T06:30:55.836Z,5.65
2023-03-16T06:31:28.132Z,5.47
2023-03-16T06:32:00.133Z,5.76
2023-03-16T06:32:32.047Z,5.89
2023-03-16T06:33:04.014Z,5.40
2023-03-16T06:33:35.797Z,5.45
2023-03-16T06:34:07.931Z,5.34
2023-03-16T06:34:40.497Z,5.51
2023-03-16T06:35:12.805Z,5.79
2023-03-16T06:35:44.645Z,5.80
2023-03-16T06:36:16.462Z,5.31
2023-03-16T06:36:48.432Z,5.25
2023-03-16T06:37:20.217Z,5.61
2023-03-16T06:37:52.189Z,5.22
2023-03-16T06:38:23.968Z,5.19
2023-03-16T06:38:55.755Z,5.54
2023-03-16T06:39:27.538Z,5.75
2023-03-16T06:39:59.489Z,5.42
2023-03-16T06:40:31.894Z,5.21
2023-03-16T06:41:03.764Z,5.31
2023-03-16T06:41:35.980Z,5.46
2023-03-16T06:42:07.836Z,5.60
2023-03-16T06:42:39.678Z,5.71
2023-03-16T06:43:12.056Z,6.00
2023-03-16T06:43:43.833Z,6.04
2023-03-16T06:44:15.600Z,5.93
2023-03-16T06:44:47.399Z,5.89
2023-03-16T06:45:22.255Z,5.91
2023-03-16T06:45:54.121Z,5.92
2023-03-16T06:46:26.033Z,5.98
2023-03-16T06:46:58.508Z,5.95
2023-03-16T06:47:30.279Z,6.03
2023-03-16T06:48:02.174Z,6.14
2023-03-16T06:48:33.952Z,6.07
2023-03-16T06:49:05.858Z,5.89
2023-03-16T06:49:37.818Z,5.52
2023-03-16T06:50:11.898Z,5.52
2023-03-16T06:50:45.624Z,5.47
2023-03-16T06:51:17.394Z,5.64
2023-03-16T06:51:49.491Z,5.64
2023-03-16T06:52:22.073Z,5.68
2023-03-16T06:52:53.913Z,5.69
2023-03-16T06:53:26.293Z,5.69
2023-03-16T06:53:58.245Z,5.65
2023-03-16T06:54:32.431Z,5.58
2023-03-16T06:55:04.943Z,5.61
2023-03-16T06:55:36.664Z,5.36
2023-03-16T06:56:08.532Z,5.29
2023-03-16T06:56:40.395Z,5.50
2023-03-16T06:57:12.343Z,5.28
2023-03-16T06:57:44.150Z,5.17
2023-03-16T06:58:16.084Z,5.43
2023-03-16T06:58:48.001Z,5.55
2023-03-16T06:59:19.788Z,5.64
2023-03-16T06:59:51.527Z,5.72
2023-03-16T07:00:23.661Z,5.72
2023-03-16T07:00:55.498Z,5.57
2023-03-16T07:01:27.380Z,5.57
2023-03-16T07:01:59.218Z,5.52
2023-03-16T07:02:32.338Z,5.72
2023-03-16T07:03:04.334Z,5.77
2023-03-16T07:03:36.131Z,5.98
2023-03-16T07:04:08.302Z,5.94
2023-03-16T07:04:40.928Z,6.27
2023-03-16T07:05:15.641Z,6.46
2023-03-16T07:05:47.572Z,6.65
2023-03-16T07:06:19.375Z,6.37
2023-03-16T07:06:51.558Z,6.20
2023-03-16T07:07:24.626Z,5.96
2023-03-16T07:07:56.415Z,6.06
2023-03-16T07:08:28.164Z,5.95
2023-03-16T07:09:01.552Z,6.03
2023-03-16T07:09:34.077Z,5.99
2023-03-16T07:10:07.395Z,6.18
2023-03-16T07:10:39.190Z,6.51
2023-03-16T07:11:11.020Z,6.78
2023-03-16T07:11:42.950Z,6.54
2023-03-16T07:12:14.951Z,6.56
2023-03-16T07:12:46.956Z,6.55
2023-03-16T07:13:18.776Z,6.71
2023-03-16T07:13:50.571Z,6.88
2023-03-16T07:14:24.862Z,7.14
2023-03-16T07:14:56.657Z,6.95
2023-03-16T07:15:28.404Z,6.90
2023-03-16T07:16:00.204Z,6.78
2023-03-16T07:16:32.359Z,6.80
2023-03-16T07:17:04.253Z,6.82
2023-03-16T07:17:36.045Z,7.18
2023-03-16T07:18:07.884Z,7.16
2023-03-16T07:18:40.070Z,6.78
2023-03-16T07:19:11.955Z,6.70
2023-03-16T07:19:43.817Z,6.79
2023-03-16T07:20:15.625Z,6.68
2023-03-16T07:20:48.162Z,6.62
2023-03-16T07:21:20.226Z,6.74
2023-03-16T07:21:53.210Z,7.19
2023-03-16T07:22:24.937Z,7.15
2023-03-16T07:22:56.934Z,7.10